Map

Track Data

SID SEASON NUMBER BASIN SUBBASIN NAME ISO_TIME NATURE LAT LON WMO_WIND WMO_PRES WMO_AGENCY TRACK_TYPE DIST2LAND LANDFALL IFLAG USA_AGENCY USA_ATCF_ID USA_LAT USA_LON USA_RECORD USA_STATUS USA_WIND USA_PRES USA_SSHS USA_R34_NE USA_R34_SE USA_R34_SW USA_R34_NW USA_R50_NE USA_R50_SE USA_R50_SW USA_R50_NW USA_R64_NE USA_R64_SE USA_R64_SW USA_R64_NW USA_POCI USA_ROCI USA_RMW USA_EYE TOKYO_LAT TOKYO_LON TOKYO_GRADE TOKYO_WIND TOKYO_PRES TOKYO_R50_DIR TOKYO_R50_LONG TOKYO_R50_SHORT TOKYO_R30_DIR TOKYO_R30_LONG TOKYO_R30_SHORT TOKYO_LAND CMA_LAT CMA_LON CMA_CAT CMA_WIND CMA_PRES HKO_LAT HKO_LON HKO_CAT HKO_WIND HKO_PRES NEWDELHI_LAT NEWDELHI_LON NEWDELHI_GRADE NEWDELHI_WIND NEWDELHI_PRES NEWDELHI_CI NEWDELHI_DP NEWDELHI_POCI REUNION_LAT REUNION_LON REUNION_TYPE REUNION_WIND REUNION_PRES REUNION_TNUM REUNION_CI REUNION_RMW REUNION_R34_NE REUNION_R34_SE REUNION_R34_SW REUNION_R34_NW REUNION_R50_NE REUNION_R50_SE REUNION_R50_SW REUNION_R50_NW REUNION_R64_NE REUNION_R64_SE REUNION_R64_SW REUNION_R64_NW BOM_LAT BOM_LON BOM_TYPE BOM_WIND BOM_PRES BOM_TNUM BOM_CI BOM_RMW BOM_R34_NE BOM_R34_SE BOM_R34_SW BOM_R34_NW BOM_R50_NE BOM_R50_SE BOM_R50_SW BOM_R50_NW BOM_R64_NE BOM_R64_SE BOM_R64_SW BOM_R64_NW BOM_ROCI BOM_POCI BOM_EYE BOM_POS_METHOD BOM_PRES_METHOD NADI_LAT NADI_LON NADI_CAT NADI_WIND NADI_PRES WELLINGTON_LAT WELLINGTON_LON WELLINGTON_WIND WELLINGTON_PRES DS824_LAT DS824_LON DS824_STAGE DS824_WIND DS824_PRES TD9636_LAT TD9636_LON TD9636_STAGE TD9636_WIND TD9636_PRES TD9635_LAT TD9635_LON TD9635_WIND TD9635_PRES TD9635_ROCI NEUMANN_LAT NEUMANN_LON NEUMANN_CLASS NEUMANN_WIND NEUMANN_PRES MLC_LAT MLC_LON MLC_CLASS MLC_WIND MLC_PRES USA_GUST BOM_GUST BOM_GUST_PER REUNION_GUST REUNION_GUST_PER USA_SEAHGT USA_SEARAD_NE USA_SEARAD_SE USA_SEARAD_SW USA_SEARAD_NW STORM_SPEED STORM_DIR
1892244N20112 1892 35 WP MM NOT_NAMED 1892-08-31 04:00:00 NR 20.0000 111.700 main 84 84 __________O___ -1 20.0000 111.700 3 3 336
1892244N20112 1892 35 WP MM NOT_NAMED 1892-08-31 06:00:00 NR 20.0957 111.668 main 86 80 __________P___ -1 20.0957 111.668 3 3 342
1892244N20112 1892 35 WP MM NOT_NAMED 1892-08-31 09:00:00 NR 20.2408 111.619 main 80 80 __________P___ -1 20.2408 111.619 3 3 344
1892244N20112 1892 35 WP MM NOT_NAMED 1892-08-31 12:00:00 NR 20.3901 111.569 main 92 83 __________P___ -1 20.3901 111.569 3 3 342
1892244N20112 1892 35 WP MM NOT_NAMED 1892-08-31 15:00:00 NR 20.5461 111.518 main 91 91 __________P___ -1 20.5461 111.518 3 3 342
1892244N20112 1892 35 WP MM NOT_NAMED 1892-08-31 16:00:00 NR 20.6000 111.500 main 91 80 __________O___ -1 20.6000 111.500 4 3 342
1892244N20112 1892 35 WP MM NOT_NAMED 1892-08-31 18:00:00 NR 20.7105 111.464 main 80 56 __________P___ -1 20.7105 111.464 4 3 342
1892244N20112 1892 35 WP MM NOT_NAMED 1892-08-31 21:00:00 NR 20.8765 111.410 main 56 45 __________P___ -1 20.8765 111.410 4 3 343
1892244N20112 1892 35 WP MM NOT_NAMED 1892-09-01 00:00:00 NR 21.0316 111.359 main 45 22 __________P___ -1 21.0316 111.359 4 3 342
1892244N20112 1892 35 WP MM NOT_NAMED 1892-09-01 03:00:00 NR 21.1634 111.313 main 22 22 __________P___ -1 21.1634 111.313 4 3 342
1892244N20112 1892 35 WP MM NOT_NAMED 1892-09-01 04:00:00 NR 21.2000 111.300 main 22 11 __________O___ -1 21.2000 111.300 4 2 343
1892244N20112 1892 35 WP MM NOT_NAMED 1892-09-01 06:00:00 NR 21.2562 111.280 main 11 11 __________P___ -1 21.2562 111.280 4 1 346
1892244N20112 1892 35 WP MM NOT_NAMED 1892-09-01 09:00:00 NR 21.3152 111.257 main 11 10 __________P___ -1 21.3152 111.257 4 1 341
1892244N20112 1892 35 WP MM NOT_NAMED 1892-09-01 12:00:00 NR 21.3550 111.236 main 10 10 __________P___ -1 21.3550 111.236 4 1 337
1892244N20112 1892 35 WP MM NOT_NAMED 1892-09-01 15:00:00 NR 21.3883 111.210 main 10 10 __________P___ -1 21.3883 111.210 4 1 323
1892244N20112 1892 35 WP MM NOT_NAMED 1892-09-01 16:00:00 NR 21.4000 111.200 main 10 10 __________O___ -1 21.4000 111.200 4 1 324
1892244N20112 1892 35 WP MM NOT_NAMED 1892-09-01 18:00:00 NR 21.4333 111.178 main 10 0 __________P___ -1 21.4333 111.178 4 1 329
1892244N20112 1892 35 WP MM NOT_NAMED 1892-09-01 21:00:00 NR 21.4833 111.138 main 0 0 __________P___ -1 21.4833 111.138 4 1 323
1892244N20112 1892 35 WP MM NOT_NAMED 1892-09-02 00:00:00 NR 21.5333 111.088 main 0 0 __________P___ -1 21.5333 111.088 4 1 315
1892244N20112 1892 35 WP MM NOT_NAMED 1892-09-02 03:00:00 NR 21.5833 111.025 main 0 0 __________P___ -1 21.5833 111.025 4 2 310
1892244N20112 1892 35 WP MM NOT_NAMED 1892-09-02 04:00:00 NR 21.6000 111.000 main 0 0 __________O___ -1 21.6000 111.000 4 2 301
1892244N20112 1892 35 WP MM NOT_NAMED 1892-09-02 06:00:00 NR 21.6334 110.940 main 0 0 __________P___ -1 21.6334 110.940 4 2 299
1892244N20112 1892 35 WP MM NOT_NAMED 1892-09-02 09:00:00 NR 21.6834 110.836 main 0 0 __________P___ -1 21.6834 110.836 4 2 297
1892244N20112 1892 35 WP MM NOT_NAMED 1892-09-02 12:00:00 NR 21.7334 110.728 main 0 0 __________P___ -1 21.7334 110.728 4 2 297
1892244N20112 1892 35 WP MM NOT_NAMED 1892-09-02 15:00:00 NR 21.7833 110.629 main 0 0 __________P___ -1 21.7833 110.629 4 2 299
1892244N20112 1892 35 WP MM NOT_NAMED 1892-09-02 16:00:00 NR 21.8000 110.600 main 0 0 __________O___ -1 21.8000 110.600 4 2 304
1892244N20112 1892 35 WP MM NOT_NAMED 1892-09-02 18:00:00 NR 21.8333 110.550 main 0 0 __________P___ -1 21.8333 110.550 4 2 309
1892244N20112 1892 35 WP MM NOT_NAMED 1892-09-02 21:00:00 NR 21.8833 110.491 main 0 0 __________P___ -1 21.8833 110.491 4 1 317
1892244N20112 1892 35 WP MM NOT_NAMED 1892-09-03 00:00:00 NR 21.9333 110.447 main 0 0 __________P___ -1 21.9333 110.447 4 1 323
1892244N20112 1892 35 WP MM NOT_NAMED 1892-09-03 03:00:00 NR 21.9833 110.411 main 0 0 __________P___ -1 21.9833 110.411 4 1 327
1892244N20112 1892 35 WP MM NOT_NAMED 1892-09-03 04:00:00 NR 22.0000 110.400 main 0 __________O___ -1 22.0000 110.400 7 1 0

Digital Typhoon Data and Search

About IBTrACS Database

This database is a web-friendly format of International Best Track Archive for Climate Stewardship (IBTrACS), a global best track data archive curated by NOAA dating back to 1842.

Updated: 2021-12-08